»·PEaware :: QXE2453 KSFO-KPDX

QXE2453 :: KSFO-KPDX

FLIGHT INFORMATION

Flight Status: Arrived
Operator:
Horizon Air
More flights by this operator :: More flights under this callsign
Pilot: Tim M. (868)
Aircraft: MCDONNELL-DOUGLAS MD-83
(MD83)
More flights by this aircraft type
Origin: KSFO San Francisco Intl
United States
Destination: KPDX Portland Intl
United States
More flights between these airports :: More routes between these airports
Route: TRUKN2 GRTFL MACHU TMBRS2
File this flight plan on PilotEdge
Remarks:
Altitude:
(Current/Filed)
36,000ft
Speed:
(Current/Filed)
440kts
Departed: 08-Aug-20 08:25 PM
Arrived: 08-Aug-20 09:55 PM
Distance/Time
Traveled:
478nm/1:30
Distance/Time
To Go:
Arrived

Flight Plot

Page will automatically refresh every two minutes.


Map Options




Map Legend


Flown Route
Filed Route
Departure Airport
Arrival Airport
Navaid (VOR, NDB)
Fix

Horizontal Profiles

Position Reports

Time Latitude Longitude Heading Altitude Ground
Speed
08-Aug-20 19:33 37.616767 -122.382220 20 22ft 0kts
08-Aug-20 19:34 37.616767 -122.382220 20 22ft 0kts
08-Aug-20 19:35 37.616767 -122.382220 20 22ft 0kts
08-Aug-20 19:36 37.616767 -122.382220 20 22ft 0kts
08-Aug-20 19:37 37.616767 -122.382220 20 22ft 0kts
08-Aug-20 19:38 37.616767 -122.382220 20 22ft 0kts
08-Aug-20 19:39 37.616767 -122.382220 20 22ft 0kts
08-Aug-20 19:40 37.616767 -122.382220 20 22ft 0kts
08-Aug-20 19:41 37.616767 -122.382220 20 22ft 0kts
08-Aug-20 19:42 37.616767 -122.382220 20 22ft 0kts
08-Aug-20 19:42 37.616767 -122.382220 20 22ft 0kts
08-Aug-20 19:44 37.616767 -122.382220 20 22ft 0kts
08-Aug-20 19:44 37.616767 -122.382220 20 22ft 0kts
08-Aug-20 19:48 37.616767 -122.382220 20 22ft 0kts
08-Aug-20 19:49 37.616767 -122.382220 20 22ft 0kts
08-Aug-20 19:50 37.616767 -122.382220 20 22ft 0kts
08-Aug-20 19:51 37.616767 -122.382220 20 22ft 0kts
08-Aug-20 19:52 37.616767 -122.382220 20 22ft 0kts
08-Aug-20 19:53 37.616767 -122.382220 20 22ft 0kts
08-Aug-20 19:54 37.616767 -122.382220 20 22ft 0kts
08-Aug-20 19:55 37.616767 -122.382220 20 22ft 0kts
08-Aug-20 19:56 37.616767 -122.382220 20 22ft 0kts
08-Aug-20 19:57 37.616767 -122.382220 20 22ft 0kts
08-Aug-20 19:58 37.616767 -122.382220 20 22ft 0kts
08-Aug-20 19:59 37.616767 -122.382220 20 22ft 0kts
08-Aug-20 20:00 37.616767 -122.382220 20 22ft 0kts
08-Aug-20 20:01 37.616751 -122.382228 21 22ft 1kts
08-Aug-20 20:02 37.616229 -122.382330 333 22ft 0kts
08-Aug-20 20:03 37.616195 -122.381793 284 22ft 2kts
08-Aug-20 20:04 37.616189 -122.381764 284 22ft 0kts
08-Aug-20 20:05 37.616189 -122.381764 284 22ft 0kts
08-Aug-20 20:06 37.616189 -122.381764 284 22ft 0kts
08-Aug-20 20:07 37.616189 -122.381764 284 22ft 0kts
08-Aug-20 20:08 37.616189 -122.381764 284 22ft 0kts
08-Aug-20 20:09 37.616189 -122.381765 284 22ft 0kts
08-Aug-20 20:10 37.616189 -122.381768 284 22ft 0kts
08-Aug-20 20:11 37.616190 -122.381771 284 22ft 0kts
08-Aug-20 20:12 37.616191 -122.381774 284 22ft 0kts
08-Aug-20 20:13 37.616191 -122.381777 284 22ft 0kts
08-Aug-20 20:14 37.616192 -122.381780 284 22ft 0kts
08-Aug-20 20:15 37.616193 -122.381784 284 22ft 0kts
08-Aug-20 20:16 37.616193 -122.381787 284 22ft 0kts
08-Aug-20 20:17 37.615551 -122.381266 120 22ft 0kts
08-Aug-20 20:18 37.615550 -122.381263 120 22ft 0kts
08-Aug-20 20:19 37.615549 -122.381260 120 22ft 0kts
08-Aug-20 20:20 37.615538 -122.381238 120 22ft 1kts
08-Aug-20 20:21 37.611694 -122.382924 208 22ft 14kts
08-Aug-20 20:22 37.609521 -122.383682 125 22ft 0kts
08-Aug-20 20:23 37.609149 -122.382848 115 22ft 12kts
08-Aug-20 20:24 37.613252 -122.379359 26 22ft 81kts
08-Aug-20 20:25 37.647511 -122.352459 47 1330ft 170kts
08-Aug-20 20:26 37.672934 -122.298089 54 3341ft 205kts
08-Aug-20 20:27 37.711333 -122.226156 55 5196ft 275kts
08-Aug-20 20:28 37.781629 -122.202635 354 8202ft 283kts
08-Aug-20 20:29 37.862354 -122.213031 355 9921ft 297kts
08-Aug-20 20:30 37.945459 -122.219782 358 10297ft 318kts
08-Aug-20 20:31 38.042982 -122.224160 359 11214ft 373kts
08-Aug-20 20:32 38.148114 -122.227313 0 13425ft 381kts
08-Aug-20 20:33 38.255245 -122.229419 0 15890ft 388kts
08-Aug-20 20:34 38.364812 -122.231983 359 18304ft 398kts
08-Aug-20 20:35 38.472023 -122.242694 356 18945ft 374kts
08-Aug-20 20:36 38.575490 -122.254437 356 19258ft 393kts
08-Aug-20 20:37 38.688184 -122.266737 356 20958ft 411kts
08-Aug-20 20:38 38.803579 -122.279293 356 22724ft 421kts
08-Aug-20 20:39 38.921635 -122.290402 357 24304ft 429kts
08-Aug-20 20:40 39.041705 -122.302892 357 25751ft 436kts
08-Aug-20 20:41 39.164142 -122.316469 356 27168ft 439kts
08-Aug-20 20:42 39.285111 -122.328867 357 28835ft 432kts
08-Aug-20 20:43 39.402043 -122.341003 356 30082ft 414kts
08-Aug-20 20:44 39.515540 -122.353259 357 31530ft 411kts
08-Aug-20 20:45 39.628901 -122.365850 357 32901ft 406kts
08-Aug-20 20:46 39.741233 -122.377031 357 34020ft 403kts
08-Aug-20 20:47 39.852640 -122.388900 357 35103ft 399kts
08-Aug-20 20:48 39.962892 -122.401096 357 35905ft 399kts
08-Aug-20 20:49 40.074601 -122.414298 357 35924ft 411kts
08-Aug-20 20:50 40.190014 -122.426086 357 35823ft 414kts
08-Aug-20 20:51 40.303375 -122.438541 357 35860ft 409kts
08-Aug-20 20:52 40.417369 -122.451791 356 35938ft 412kts
08-Aug-20 20:53 40.532096 -122.464327 357 35958ft 413kts
08-Aug-20 20:54 40.646358 -122.476472 356 35907ft 412kts
08-Aug-20 20:55 40.760573 -122.488543 356 35920ft 411kts
08-Aug-20 20:56 40.874538 -122.500974 356 35994ft 411kts
08-Aug-20 20:57 40.988524 -122.513960 356 36102ft 412kts
08-Aug-20 20:58 41.103134 -122.526943 356 36114ft 412kts
08-Aug-20 20:59 41.217333 -122.539811 356 36029ft 410kts
08-Aug-20 21:00 41.331213 -122.548280 359 36107ft 411kts
08-Aug-20 21:01 41.445968 -122.556302 355 36176ft 413kts
08-Aug-20 21:02 41.559712 -122.573272 354 36174ft 411kts
08-Aug-20 21:03 41.674046 -122.585768 356 36149ft 411kts
08-Aug-20 21:04 41.788229 -122.593291 357 36137ft 410kts
08-Aug-20 21:05 41.902588 -122.600722 357 36108ft 410kts
08-Aug-20 21:06 42.016737 -122.607667 357 36093ft 410kts
08-Aug-20 21:07 42.130928 -122.613846 357 36069ft 410kts
08-Aug-20 21:08 42.245033 -122.622088 356 36115ft 410kts
08-Aug-20 21:09 42.359375 -122.629556 356 36142ft 411kts
08-Aug-20 21:10 42.473453 -122.637487 356 36182ft 412kts
08-Aug-20 21:11 42.588382 -122.645611 356 36186ft 412kts
08-Aug-20 21:12 42.702803 -122.651725 356 36175ft 411kts
08-Aug-20 21:13 42.817028 -122.658949 355 36126ft 411kts
08-Aug-20 21:14 42.930969 -122.668048 355 36125ft 411kts
08-Aug-20 21:15 43.045542 -122.675978 355 36241ft 411kts
08-Aug-20 21:16 43.159855 -122.684109 355 36242ft 411kts
08-Aug-20 21:17 43.274346 -122.692169 355 36265ft 411kts
08-Aug-20 21:18 43.388871 -122.699952 355 36274ft 412kts
08-Aug-20 21:19 43.502909 -122.707261 355 36264ft 411kts
08-Aug-20 21:20 43.617211 -122.714605 355 36265ft 410kts
08-Aug-20 21:21 43.733384 -122.723288 354 34710ft 414kts
08-Aug-20 21:22 43.846249 -122.731753 355 32708ft 404kts
08-Aug-20 21:23 43.959828 -122.738021 355 30714ft 413kts
08-Aug-20 21:24 44.075475 -122.745833 353 28720ft 421kts
08-Aug-20 21:25 44.192308 -122.751307 359 26716ft 403kts
08-Aug-20 21:26 44.300300 -122.739831 1 24709ft 379kts
08-Aug-20 21:27 44.403512 -122.726962 1 22889ft 366kts
08-Aug-20 21:29 44.504088 -122.715963 0 21394ft 360kts
08-Aug-20 21:30 44.602335 -122.707316 0 19892ft 349kts
08-Aug-20 21:31 44.697522 -122.697513 1 18392ft 339kts
08-Aug-20 21:32 44.790887 -122.688406 0 16889ft 333kts
08-Aug-20 21:33 44.880948 -122.679501 0 15385ft 314kts
08-Aug-20 21:34 44.965306 -122.671245 0 13886ft 298kts
08-Aug-20 21:35 45.046239 -122.663279 1 12381ft 285kts
08-Aug-20 21:36 45.124704 -122.655744 1 10873ft 278kts
08-Aug-20 21:37 45.196308 -122.648448 2 9469ft 272kts
08-Aug-20 21:38 45.269578 -122.632275 25 7976ft 270kts
08-Aug-20 21:39 45.332788 -122.573530 32 6462ft 263kts
08-Aug-20 21:40 45.390982 -122.516883 32 5106ft 238kts
08-Aug-20 21:41 45.443655 -122.461888 58 4970ft 229kts
08-Aug-20 21:42 45.423683 -122.378283 106 4587ft 242kts
08-Aug-20 21:43 45.397072 -122.293777 117 3989ft 228kts
08-Aug-20 21:44 45.369358 -122.211756 92 3972ft 232kts
08-Aug-20 21:45 45.409393 -122.151986 25 3980ft 220kts
08-Aug-20 21:46 45.465427 -122.121372 343 3966ft 212kts
08-Aug-20 21:47 45.487691 -122.194625 275 3982ft 217kts
08-Aug-20 21:48 45.491368 -122.273502 276 3979ft 183kts
08-Aug-20 21:48 45.495719 -122.330302 279 3924ft 171kts
08-Aug-20 21:50 45.510427 -122.406436 299 2791ft 161kts
08-Aug-20 21:50 45.527916 -122.448574 301 2134ft 143kts
08-Aug-20 21:52 45.550949 -122.508061 301 1190ft 144kts
08-Aug-20 21:52 45.566874 -122.548827 299 527ft 133kts
08-Aug-20 21:53 45.584286 -122.593510 299 39ft 104kts
08-Aug-20 21:54 45.589570 -122.604403 34 39ft 0kts
08-Aug-20 21:55 45.589573 -122.604401 34 39ft 0kts
08-Aug-20 21:56 45.589725 -122.604102 52 39ft 6kts
08-Aug-20 21:57 45.588974 -122.600270 119 39ft 19kts
08-Aug-20 21:58 45.588217 -122.598033 75 39ft 4kts
08-Aug-20 21:59 45.588811 -122.597418 29 39ft 0kts
08-Aug-20 22:00 45.588814 -122.597416 29 39ft 0kts
08-Aug-20 22:01 45.588815 -122.597415 29 39ft 0kts
08-Aug-20 22:02 45.588815 -122.597415 29 39ft 0kts
08-Aug-20 22:03 45.588815 -122.597415 29 39ft 0kts

Navigation Log

Ident Type
Flight plan parsing failed, navigation log unavailable